sensor_id;sensor_type;location;lat;lon;timestamp;P1;durP1;ratioP1;P2;durP2;ratioP2
43606;SDS011;29197;44.788;10.366;2023-01-01T00:01:07;77.77;;;46.23;;
43606;SDS011;29197;44.788;10.366;2023-01-01T00:03:58;81.57;;;46.93;;
43606;SDS011;29197;44.788;10.366;2023-01-01T00:06:47;79.38;;;45.53;;
43606;SDS011;29197;44.788;10.366;2023-01-01T00:09:37;80.45;;;47.08;;
43606;SDS011;29197;44.788;10.366;2023-01-01T00:12:44;71.20;;;43.23;;
43606;SDS011;29197;44.788;10.366;2023-01-01T00:15:33;71.40;;;41.67;;
43606;SDS011;29197;44.788;10.366;2023-01-01T00:18:23;67.22;;;38.90;;
43606;SDS011;29197;44.788;10.366;2023-01-01T00:21:13;67.82;;;38.60;;
43606;SDS011;29197;44.788;10.366;2023-01-01T00:24:04;66.53;;;36.60;;
43606;SDS011;29197;44.788;10.366;2023-01-01T00:26:56;57.67;;;34.20;;
43606;SDS011;29197;44.788;10.366;2023-01-01T00:29:44;56.78;;;32.67;;
43606;SDS011;29197;44.788;10.366;2023-01-01T00:32:33;57.75;;;34.25;;
43606;SDS011;29197;44.788;10.366;2023-01-01T00:35:22;58.40;;;34.17;;
43606;SDS011;29197;44.788;10.366;2023-01-01T00:38:11;55.60;;;34.13;;
43606;SDS011;29197;44.788;10.366;2023-01-01T00:41:00;62.15;;;35.50;;
43606;SDS011;29197;44.788;10.366;2023-01-01T00:43:51;60.17;;;34.37;;
43606;SDS011;29197;44.788;10.366;2023-01-01T00:46:40;62.63;;;35.10;;
43606;SDS011;29197;44.788;10.366;2023-01-01T00:49:30;56.77;;;33.37;;
43606;SDS011;29197;44.788;10.366;2023-01-01T00:52:19;58.22;;;32.55;;
43606;SDS011;29197;44.788;10.366;2023-01-01T00:55:08;54.97;;;32.40;;
43606;SDS011;29197;44.788;10.366;2023-01-01T00:57:59;56.50;;;33.30;;
43606;SDS011;29197;44.788;10.366;2023-01-01T01:00:50;62.73;;;35.20;;
43606;SDS011;29197;44.788;10.366;2023-01-01T01:03:40;58.90;;;35.00;;
43606;SDS011;29197;44.788;10.366;2023-01-01T01:06:30;61.47;;;35.20;;
43606;SDS011;29197;44.788;10.366;2023-01-01T01:09:19;58.83;;;33.17;;
43606;SDS011;29197;44.788;10.366;2023-01-01T01:12:08;58.93;;;34.00;;
43606;SDS011;29197;44.788;10.366;2023-01-01T01:15:05;56.92;;;33.85;;
43606;SDS011;29197;44.788;10.366;2023-01-01T01:17:56;63.15;;;37.00;;
43606;SDS011;29197;44.788;10.366;2023-01-01T01:20:48;58.37;;;32.63;;
43606;SDS011;29197;44.788;10.366;2023-01-01T01:23:38;61.83;;;35.60;;
43606;SDS011;29197;44.788;10.366;2023-01-01T01:26:28;61.03;;;35.13;;
43606;SDS011;29197;44.788;10.366;2023-01-01T01:29:18;58.35;;;34.30;;
43606;SDS011;29197;44.788;10.366;2023-01-01T01:32:07;64.37;;;36.87;;
43606;SDS011;29197;44.788;10.366;2023-01-01T01:34:58;66.60;;;37.20;;
43606;SDS011;29197;44.788;10.366;2023-01-01T01:37:47;62.87;;;35.67;;
43606;SDS011;29197;44.788;10.366;2023-01-01T01:40:37;58.85;;;33.78;;
43606;SDS011;29197;44.788;10.366;2023-01-01T01:43:46;56.53;;;34.30;;
43606;SDS011;29197;44.788;10.366;2023-01-01T01:46:40;60.43;;;35.50;;
43606;SDS011;29197;44.788;10.366;2023-01-01T01:49:31;61.97;;;34.08;;
43606;SDS011;29197;44.788;10.366;2023-01-01T01:52:22;59.10;;;34.40;;
43606;SDS011;29197;44.788;10.366;2023-01-01T01:55:12;61.47;;;33.33;;
43606;SDS011;29197;44.788;10.366;2023-01-01T01:58:01;58.00;;;32.90;;
43606;SDS011;29197;44.788;10.366;2023-01-01T02:00:52;61.27;;;34.47;;
43606;SDS011;29197;44.788;10.366;2023-01-01T02:03:43;71.75;;;35.10;;
43606;SDS011;29197;44.788;10.366;2023-01-01T02:06:36;62.38;;;33.80;;
43606;SDS011;29197;44.788;10.366;2023-01-01T02:09:28;61.57;;;33.07;;
43606;SDS011;29197;44.788;10.366;2023-01-01T02:12:17;62.43;;;34.13;;
43606;SDS011;29197;44.788;10.366;2023-01-01T02:15:07;66.23;;;34.73;;
43606;SDS011;29197;44.788;10.366;2023-01-01T02:17:58;63.40;;;32.77;;
43606;SDS011;29197;44.788;10.366;2023-01-01T02:20:51;61.65;;;32.88;;
43606;SDS011;29197;44.788;10.366;2023-01-01T02:23:58;61.17;;;31.77;;
43606;SDS011;29197;44.788;10.366;2023-01-01T02:26:57;60.30;;;33.17;;
43606;SDS011;29197;44.788;10.366;2023-01-01T02:29:51;64.33;;;32.53;;
43606;SDS011;29197;44.788;10.366;2023-01-01T02:32:43;58.20;;;31.33;;
43606;SDS011;29197;44.788;10.366;2023-01-01T02:35:35;60.90;;;32.05;;
43606;SDS011;29197;44.788;10.366;2023-01-01T02:38:28;57.70;;;30.97;;
43606;SDS011;29197;44.788;10.366;2023-01-01T02:41:20;58.63;;;30.50;;
43606;SDS011;29197;44.788;10.366;2023-01-01T02:44:13;53.07;;;29.07;;
43606;SDS011;29197;44.788;10.366;2023-01-01T02:47:12;59.03;;;32.05;;
43606;SDS011;29197;44.788;10.366;2023-01-01T02:50:03;55.67;;;31.33;;
43606;SDS011;29197;44.788;10.366;2023-01-01T02:53:08;55.17;;;29.20;;
43606;SDS011;29197;44.788;10.366;2023-01-01T02:56:07;59.13;;;32.00;;
43606;SDS011;29197;44.788;10.366;2023-01-01T02:59:09;60.45;;;32.25;;
43606;SDS011;29197;44.788;10.366;2023-01-01T03:02:24;55.70;;;30.17;;
43606;SDS011;29197;44.788;10.366;2023-01-01T03:05:19;56.57;;;30.70;;
43606;SDS011;29197;44.788;10.366;2023-01-01T03:08:16;52.90;;;29.17;;
43606;SDS011;29197;44.788;10.366;2023-01-01T03:11:12;52.47;;;28.17;;
43606;SDS011;29197;44.788;10.366;2023-01-01T03:14:05;55.47;;;28.87;;
43606;SDS011;29197;44.788;10.366;2023-01-01T03:17:01;57.83;;;31.13;;
43606;SDS011;29197;44.788;10.366;2023-01-01T03:19:56;54.83;;;28.87;;
43606;SDS011;29197;44.788;10.366;2023-01-01T12:36:24;22.73;;;13.60;;
43606;SDS011;29197;44.788;10.366;2023-01-01T12:43:04;20.52;;;11.75;;
43606;SDS011;29197;44.788;10.366;2023-01-01T12:49:29;24.95;;;13.52;;
43606;SDS011;29197;44.788;10.366;2023-01-01T12:52:34;18.27;;;10.85;;
43606;SDS011;29197;44.788;10.366;2023-01-01T12:55:42;21.52;;;12.52;;
43606;SDS011;29197;44.788;10.366;2023-01-01T12:58:46;21.23;;;12.30;;
43606;SDS011;29197;44.788;10.366;2023-01-01T13:01:39;18.13;;;10.90;;
43606;SDS011;29197;44.788;10.366;2023-01-01T13:04:29;19.10;;;12.00;;
43606;SDS011;29197;44.788;10.366;2023-01-01T13:07:19;19.45;;;11.70;;
43606;SDS011;29197;44.788;10.366;2023-01-01T13:10:18;19.95;;;12.07;;
43606;SDS011;29197;44.788;10.366;2023-01-01T13:13:12;18.50;;;10.50;;
43606;SDS011;29197;44.788;10.366;2023-01-01T13:16:03;18.83;;;11.45;;
43606;SDS011;29197;44.788;10.366;2023-01-01T13:18:53;23.10;;;14.18;;
43606;SDS011;29197;44.788;10.366;2023-01-01T13:21:48;24.08;;;13.02;;
43606;SDS011;29197;44.788;10.366;2023-01-01T13:24:37;27.27;;;15.63;;
43606;SDS011;29197;44.788;10.366;2023-01-01T13:30:52;28.05;;;14.93;;
43606;SDS011;29197;44.788;10.366;2023-01-01T13:33:41;26.38;;;15.70;;
43606;SDS011;29197;44.788;10.366;2023-01-01T13:36:30;25.25;;;13.50;;
43606;SDS011;29197;44.788;10.366;2023-01-01T13:42:40;26.27;;;14.05;;
43606;SDS011;29197;44.788;10.366;2023-01-01T13:45:41;21.27;;;12.75;;
43606;SDS011;29197;44.788;10.366;2023-01-01T13:49:05;20.80;;;13.07;;
43606;SDS011;29197;44.788;10.366;2023-01-01T13:52:12;23.50;;;13.07;;
43606;SDS011;29197;44.788;10.366;2023-01-01T13:55:41;19.58;;;12.05;;
43606;SDS011;29197;44.788;10.366;2023-01-01T13:58:44;20.70;;;12.93;;
43606;SDS011;29197;44.788;10.366;2023-01-01T14:01:59;21.65;;;13.57;;
43606;SDS011;29197;44.788;10.366;2023-01-01T14:05:03;21.88;;;13.38;;
43606;SDS011;29197;44.788;10.366;2023-01-01T14:08:00;21.50;;;12.90;;
43606;SDS011;29197;44.788;10.366;2023-01-01T14:10:55;24.25;;;13.50;;
43606;SDS011;29197;44.788;10.366;2023-01-01T14:13:46;24.80;;;14.65;;
43606;SDS011;29197;44.788;10.366;2023-01-01T14:16:35;25.10;;;14.65;;
43606;SDS011;29197;44.788;10.366;2023-01-01T14:19:27;27.10;;;16.45;;
43606;SDS011;29197;44.788;10.366;2023-01-01T14:22:16;28.70;;;15.88;;
43606;SDS011;29197;44.788;10.366;2023-01-01T14:25:14;27.77;;;15.50;;
43606;SDS011;29197;44.788;10.366;2023-01-01T14:31:08;26.75;;;14.75;;
43606;SDS011;29197;44.788;10.366;2023-01-01T14:33:59;26.42;;;15.43;;
43606;SDS011;29197;44.788;10.366;2023-01-01T14:37:02;28.27;;;16.20;;
43606;SDS011;29197;44.788;10.366;2023-01-01T14:40:04;23.77;;;15.35;;
43606;SDS011;29197;44.788;10.366;2023-01-01T14:42:59;22.65;;;13.95;;
43606;SDS011;29197;44.788;10.366;2023-01-01T14:45:51;24.88;;;14.75;;
43606;SDS011;29197;44.788;10.366;2023-01-01T14:48:41;24.17;;;15.20;;
43606;SDS011;29197;44.788;10.366;2023-01-01T14:51:31;23.70;;;14.63;;
43606;SDS011;29197;44.788;10.366;2023-01-01T14:54:29;24.45;;;15.55;;
43606;SDS011;29197;44.788;10.366;2023-01-01T14:57:24;24.00;;;14.00;;
43606;SDS011;29197;44.788;10.366;2023-01-01T15:00:20;36.20;;;23.27;;
43606;SDS011;29197;44.788;10.366;2023-01-01T15:03:13;29.55;;;18.67;;
43606;SDS011;29197;44.788;10.366;2023-01-01T15:06:04;27.27;;;16.92;;
43606;SDS011;29197;44.788;10.366;2023-01-01T15:09:02;26.63;;;14.40;;
43606;SDS011;29197;44.788;10.366;2023-01-01T15:11:53;20.73;;;13.40;;
43606;SDS011;29197;44.788;10.366;2023-01-01T15:14:43;20.88;;;13.70;;
43606;SDS011;29197;44.788;10.366;2023-01-01T15:17:43;20.45;;;12.93;;
43606;SDS011;29197;44.788;10.366;2023-01-01T15:20:33;21.77;;;13.38;;
43606;SDS011;29197;44.788;10.366;2023-01-01T15:23:23;25.92;;;15.57;;
43606;SDS011;29197;44.788;10.366;2023-01-01T15:26:12;19.17;;;13.27;;
43606;SDS011;29197;44.788;10.366;2023-01-01T15:29:15;23.05;;;15.43;;
43606;SDS011;29197;44.788;10.366;2023-01-01T15:32:14;42.05;;;24.05;;
43606;SDS011;29197;44.788;10.366;2023-01-01T15:35:17;30.35;;;17.17;;
43606;SDS011;29197;44.788;10.366;2023-01-01T15:38:17;23.52;;;15.20;;
43606;SDS011;29197;44.788;10.366;2023-01-01T15:41:22;23.65;;;15.10;;
43606;SDS011;29197;44.788;10.366;2023-01-01T15:44:20;24.27;;;15.20;;
43606;SDS011;29197;44.788;10.366;2023-01-01T15:47:15;26.20;;;14.32;;
43606;SDS011;29197;44.788;10.366;2023-01-01T15:50:12;23.27;;;13.38;;
43606;SDS011;29197;44.788;10.366;2023-01-01T15:53:10;23.42;;;14.35;;
43606;SDS011;29197;44.788;10.366;2023-01-01T15:56:04;18.77;;;12.52;;
43606;SDS011;29197;44.788;10.366;2023-01-01T15:58:59;20.55;;;12.85;;
43606;SDS011;29197;44.788;10.366;2023-01-01T16:02:03;15.95;;;10.85;;
43606;SDS011;29197;44.788;10.366;2023-01-01T16:04:59;17.60;;;10.88;;
43606;SDS011;29197;44.788;10.366;2023-01-01T16:07:55;17.88;;;10.93;;
43606;SDS011;29197;44.788;10.366;2023-01-01T16:10:46;16.45;;;9.85;;
43606;SDS011;29197;44.788;10.366;2023-01-01T16:13:35;12.40;;;8.57;;
43606;SDS011;29197;44.788;10.366;2023-01-01T16:16:25;14.70;;;9.47;;
43606;SDS011;29197;44.788;10.366;2023-01-01T16:19:18;14.65;;;9.73;;
43606;SDS011;29197;44.788;10.366;2023-01-01T16:22:11;13.40;;;9.48;;
43606;SDS011;29197;44.788;10.366;2023-01-01T16:25:04;14.75;;;10.18;;
43606;SDS011;29197;44.788;10.366;2023-01-01T16:27:59;14.82;;;9.38;;
43606;SDS011;29197;44.788;10.366;2023-01-01T16:30:49;16.35;;;11.00;;
43606;SDS011;29197;44.788;10.366;2023-01-01T16:33:38;17.42;;;10.80;;
43606;SDS011;29197;44.788;10.366;2023-01-01T16:36:29;18.87;;;11.13;;
43606;SDS011;29197;44.788;10.366;2023-01-01T16:39:19;16.13;;;10.88;;
43606;SDS011;29197;44.788;10.366;2023-01-01T16:42:09;21.77;;;11.40;;
43606;SDS011;29197;44.788;10.366;2023-01-01T16:45:00;19.15;;;11.82;;
43606;SDS011;29197;44.788;10.366;2023-01-01T16:47:49;18.20;;;10.88;;
43606;SDS011;29197;44.788;10.366;2023-01-01T16:50:38;18.85;;;11.25;;
43606;SDS011;29197;44.788;10.366;2023-01-01T16:53:28;18.55;;;11.65;;
43606;SDS011;29197;44.788;10.366;2023-01-01T16:56:18;17.27;;;11.23;;
43606;SDS011;29197;44.788;10.366;2023-01-01T16:59:07;19.42;;;12.02;;
43606;SDS011;29197;44.788;10.366;2023-01-01T17:01:56;20.40;;;12.50;;
43606;SDS011;29197;44.788;10.366;2023-01-01T17:04:46;18.42;;;11.70;;
43606;SDS011;29197;44.788;10.366;2023-01-01T17:07:34;15.82;;;11.80;;
43606;SDS011;29197;44.788;10.366;2023-01-01T17:10:25;16.25;;;10.98;;
43606;SDS011;29197;44.788;10.366;2023-01-01T17:13:14;17.08;;;11.43;;
43606;SDS011;29197;44.788;10.366;2023-01-01T17:16:03;17.75;;;10.80;;
43606;SDS011;29197;44.788;10.366;2023-01-01T17:18:53;17.58;;;12.00;;
43606;SDS011;29197;44.788;10.366;2023-01-01T17:22:02;16.83;;;11.40;;
43606;SDS011;29197;44.788;10.366;2023-01-01T17:24:51;19.37;;;11.83;;
43606;SDS011;29197;44.788;10.366;2023-01-01T17:27:42;19.05;;;11.38;;
43606;SDS011;29197;44.788;10.366;2023-01-01T17:30:33;15.48;;;10.40;;
43606;SDS011;29197;44.788;10.366;2023-01-01T17:33:24;14.60;;;10.25;;
43606;SDS011;29197;44.788;10.366;2023-01-01T17:36:13;18.48;;;11.65;;
43606;SDS011;29197;44.788;10.366;2023-01-01T17:39:02;21.55;;;14.05;;
43606;SDS011;29197;44.788;10.366;2023-01-01T17:41:52;19.02;;;12.88;;
43606;SDS011;29197;44.788;10.366;2023-01-01T17:44:44;21.80;;;12.98;;
43606;SDS011;29197;44.788;10.366;2023-01-01T17:47:33;24.52;;;15.45;;
43606;SDS011;29197;44.788;10.366;2023-01-01T17:50:22;26.52;;;17.15;;
43606;SDS011;29197;44.788;10.366;2023-01-01T17:53:12;28.90;;;19.75;;
43606;SDS011;29197;44.788;10.366;2023-01-01T17:56:01;34.33;;;22.70;;
43606;SDS011;29197;44.788;10.366;2023-01-01T17:58:51;30.40;;;16.92;;
43606;SDS011;29197;44.788;10.366;2023-01-01T18:01:43;22.70;;;14.20;;
43606;SDS011;29197;44.788;10.366;2023-01-01T18:04:32;18.77;;;12.18;;
43606;SDS011;29197;44.788;10.366;2023-01-01T18:07:22;18.27;;;11.35;;
43606;SDS011;29197;44.788;10.366;2023-01-01T18:10:12;18.50;;;12.05;;
43606;SDS011;29197;44.788;10.366;2023-01-01T18:13:01;18.10;;;12.07;;
43606;SDS011;29197;44.788;10.366;2023-01-01T18:15:50;23.63;;;14.95;;
43606;SDS011;29197;44.788;10.366;2023-01-01T18:18:42;21.65;;;12.93;;
43606;SDS011;29197;44.788;10.366;2023-01-01T18:21:31;18.95;;;12.32;;
43606;SDS011;29197;44.788;10.366;2023-01-01T18:24:21;21.42;;;12.98;;
43606;SDS011;29197;44.788;10.366;2023-01-01T18:27:12;22.15;;;14.23;;
43606;SDS011;29197;44.788;10.366;2023-01-01T18:30:01;21.40;;;14.05;;
43606;SDS011;29197;44.788;10.366;2023-01-01T18:32:51;21.38;;;13.77;;
43606;SDS011;29197;44.788;10.366;2023-01-01T18:35:42;19.23;;;12.43;;
43606;SDS011;29197;44.788;10.366;2023-01-01T18:38:32;21.27;;;13.70;;
43606;SDS011;29197;44.788;10.366;2023-01-01T18:44:48;18.63;;;12.65;;
43606;SDS011;29197;44.788;10.366;2023-01-01T18:47:37;18.65;;;12.10;;
43606;SDS011;29197;44.788;10.366;2023-01-01T18:50:26;24.58;;;13.55;;
43606;SDS011;29197;44.788;10.366;2023-01-01T18:53:19;18.95;;;13.32;;
43606;SDS011;29197;44.788;10.366;2023-01-01T18:56:10;20.38;;;13.55;;
43606;SDS011;29197;44.788;10.366;2023-01-01T18:59:01;21.25;;;14.50;;
43606;SDS011;29197;44.788;10.366;2023-01-01T19:02:10;20.38;;;13.48;;
43606;SDS011;29197;44.788;10.366;2023-01-01T19:05:16;21.77;;;14.35;;
43606;SDS011;29197;44.788;10.366;2023-01-01T19:08:10;19.95;;;13.88;;
43606;SDS011;29197;44.788;10.366;2023-01-01T19:11:07;21.08;;;14.20;;
43606;SDS011;29197;44.788;10.366;2023-01-01T19:14:11;21.17;;;13.50;;
43606;SDS011;29197;44.788;10.366;2023-01-01T19:17:05;20.30;;;13.77;;
43606;SDS011;29197;44.788;10.366;2023-01-01T19:20:05;22.90;;;14.20;;
43606;SDS011;29197;44.788;10.366;2023-01-01T19:23:01;22.55;;;15.77;;
43606;SDS011;29197;44.788;10.366;2023-01-01T19:25:57;22.35;;;15.02;;
43606;SDS011;29197;44.788;10.366;2023-01-01T19:28:52;23.70;;;14.02;;
43606;SDS011;29197;44.788;10.366;2023-01-01T19:31:44;23.05;;;14.95;;
43606;SDS011;29197;44.788;10.366;2023-01-01T19:34:35;24.08;;;15.45;;
43606;SDS011;29197;44.788;10.366;2023-01-01T19:37:25;21.95;;;14.38;;
43606;SDS011;29197;44.788;10.366;2023-01-01T19:40:14;23.20;;;15.15;;
43606;SDS011;29197;44.788;10.366;2023-01-01T19:43:04;22.83;;;14.48;;
43606;SDS011;29197;44.788;10.366;2023-01-01T19:45:55;24.52;;;15.55;;
43606;SDS011;29197;44.788;10.366;2023-01-01T19:48:44;23.08;;;13.93;;
43606;SDS011;29197;44.788;10.366;2023-01-01T19:51:35;24.25;;;15.60;;
43606;SDS011;29197;44.788;10.366;2023-01-01T19:54:25;27.73;;;15.75;;
43606;SDS011;29197;44.788;10.366;2023-01-01T19:57:14;21.42;;;15.13;;
43606;SDS011;29197;44.788;10.366;2023-01-01T20:00:04;24.15;;;15.20;;
43606;SDS011;29197;44.788;10.366;2023-01-01T20:02:56;25.65;;;15.88;;
43606;SDS011;29197;44.788;10.366;2023-01-01T20:06:06;23.67;;;15.10;;
43606;SDS011;29197;44.788;10.366;2023-01-01T20:08:56;32.20;;;16.58;;
43606;SDS011;29197;44.788;10.366;2023-01-01T20:11:45;26.60;;;15.95;;
43606;SDS011;29197;44.788;10.366;2023-01-01T20:14:36;25.15;;;16.70;;
43606;SDS011;29197;44.788;10.366;2023-01-01T20:17:25;28.95;;;16.90;;
43606;SDS011;29197;44.788;10.366;2023-01-01T20:20:18;26.75;;;16.45;;
43606;SDS011;29197;44.788;10.366;2023-01-01T20:23:07;24.17;;;14.77;;
43606;SDS011;29197;44.788;10.366;2023-01-01T20:25:59;23.20;;;15.45;;
43606;SDS011;29197;44.788;10.366;2023-01-01T20:28:49;22.20;;;14.45;;
43606;SDS011;29197;44.788;10.366;2023-01-01T20:31:56;24.83;;;16.15;;
43606;SDS011;29197;44.788;10.366;2023-01-01T20:34:46;24.47;;;14.93;;
43606;SDS011;29197;44.788;10.366;2023-01-01T20:37:38;27.75;;;16.17;;
43606;SDS011;29197;44.788;10.366;2023-01-01T20:40:26;24.35;;;15.48;;
43606;SDS011;29197;44.788;10.366;2023-01-01T20:43:15;25.43;;;15.83;;
43606;SDS011;29197;44.788;10.366;2023-01-01T20:46:04;24.47;;;15.60;;
43606;SDS011;29197;44.788;10.366;2023-01-01T20:48:54;24.23;;;15.93;;
43606;SDS011;29197;44.788;10.366;2023-01-01T20:51:43;25.77;;;15.73;;
43606;SDS011;29197;44.788;10.366;2023-01-01T20:54:34;25.30;;;15.90;;
43606;SDS011;29197;44.788;10.366;2023-01-01T20:57:23;25.60;;;16.42;;
43606;SDS011;29197;44.788;10.366;2023-01-01T21:00:13;27.63;;;18.60;;
43606;SDS011;29197;44.788;10.366;2023-01-01T21:03:03;24.38;;;15.70;;
43606;SDS011;29197;44.788;10.366;2023-01-01T21:05:52;26.98;;;16.70;;
43606;SDS011;29197;44.788;10.366;2023-01-01T21:08:41;24.25;;;15.73;;
43606;SDS011;29197;44.788;10.366;2023-01-01T21:11:34;25.08;;;16.42;;
43606;SDS011;29197;44.788;10.366;2023-01-01T21:14:23;27.15;;;16.92;;
43606;SDS011;29197;44.788;10.366;2023-01-01T21:17:19;29.63;;;18.42;;
43606;SDS011;29197;44.788;10.366;2023-01-01T21:20:09;28.35;;;17.33;;
43606;SDS011;29197;44.788;10.366;2023-01-01T21:22:59;26.42;;;17.25;;
43606;SDS011;29197;44.788;10.366;2023-01-01T21:25:49;27.40;;;17.37;;
43606;SDS011;29197;44.788;10.366;2023-01-01T21:28:41;28.25;;;18.08;;
43606;SDS011;29197;44.788;10.366;2023-01-01T21:31:31;28.38;;;18.00;;
43606;SDS011;29197;44.788;10.366;2023-01-01T21:34:29;24.87;;;16.00;;
43606;SDS011;29197;44.788;10.366;2023-01-01T21:37:25;24.45;;;17.33;;
43606;SDS011;29197;44.788;10.366;2023-01-01T21:40:36;26.00;;;16.90;;
43606;SDS011;29197;44.788;10.366;2023-01-01T21:43:33;24.70;;;16.60;;
43606;SDS011;29197;44.788;10.366;2023-01-01T21:46:37;29.65;;;18.13;;
43606;SDS011;29197;44.788;10.366;2023-01-01T21:49:33;26.08;;;16.92;;
43606;SDS011;29197;44.788;10.366;2023-01-01T21:52:23;29.98;;;17.35;;
43606;SDS011;29197;44.788;10.366;2023-01-01T21:55:15;26.63;;;16.67;;
43606;SDS011;29197;44.788;10.366;2023-01-01T21:58:09;27.27;;;16.60;;
43606;SDS011;29197;44.788;10.366;2023-01-01T22:01:19;28.45;;;16.80;;
43606;SDS011;29197;44.788;10.366;2023-01-01T22:04:18;24.95;;;16.05;;
43606;SDS011;29197;44.788;10.366;2023-01-01T22:07:13;26.73;;;16.77;;
43606;SDS011;29197;44.788;10.366;2023-01-01T22:10:28;26.05;;;16.60;;
43606;SDS011;29197;44.788;10.366;2023-01-01T22:13:20;24.23;;;16.00;;
43606;SDS011;29197;44.788;10.366;2023-01-01T22:16:10;28.48;;;16.60;;
43606;SDS011;29197;44.788;10.366;2023-01-01T22:19:07;26.58;;;16.60;;
43606;SDS011;29197;44.788;10.366;2023-01-01T22:22:01;30.08;;;17.73;;
43606;SDS011;29197;44.788;10.366;2023-01-01T22:24:59;28.02;;;17.38;;
43606;SDS011;29197;44.788;10.366;2023-01-01T22:27:54;25.45;;;16.52;;
43606;SDS011;29197;44.788;10.366;2023-01-01T22:30:43;28.80;;;17.92;;
43606;SDS011;29197;44.788;10.366;2023-01-01T22:33:34;26.98;;;17.85;;
43606;SDS011;29197;44.788;10.366;2023-01-01T22:36:25;27.48;;;17.42;;
43606;SDS011;29197;44.788;10.366;2023-01-01T22:39:18;27.67;;;17.45;;
43606;SDS011;29197;44.788;10.366;2023-01-01T22:42:16;29.73;;;18.33;;
43606;SDS011;29197;44.788;10.366;2023-01-01T22:45:09;31.52;;;19.88;;
43606;SDS011;29197;44.788;10.366;2023-01-01T22:48:02;29.25;;;18.58;;
43606;SDS011;29197;44.788;10.366;2023-01-01T22:50:55;29.98;;;18.67;;
43606;SDS011;29197;44.788;10.366;2023-01-01T22:53:47;31.20;;;18.67;;
43606;SDS011;29197;44.788;10.366;2023-01-01T22:56:40;28.20;;;17.95;;
43606;SDS011;29197;44.788;10.366;2023-01-01T22:59:29;26.77;;;17.52;;
43606;SDS011;29197;44.788;10.366;2023-01-01T23:02:18;32.38;;;19.65;;
43606;SDS011;29197;44.788;10.366;2023-01-01T23:05:08;28.60;;;18.05;;
43606;SDS011;29197;44.788;10.366;2023-01-01T23:07:57;31.20;;;17.75;;
43606;SDS011;29197;44.788;10.366;2023-01-01T23:10:46;31.10;;;18.00;;
43606;SDS011;29197;44.788;10.366;2023-01-01T23:13:37;30.38;;;17.25;;
43606;SDS011;29197;44.788;10.366;2023-01-01T23:16:44;28.30;;;17.90;;
43606;SDS011;29197;44.788;10.366;2023-01-01T23:19:35;30.38;;;17.38;;
43606;SDS011;29197;44.788;10.366;2023-01-01T23:22:24;26.90;;;16.92;;
43606;SDS011;29197;44.788;10.366;2023-01-01T23:25:15;28.40;;;16.97;;
43606;SDS011;29197;44.788;10.366;2023-01-01T23:28:05;30.08;;;17.67;;
43606;SDS011;29197;44.788;10.366;2023-01-01T23:30:56;28.85;;;17.55;;
43606;SDS011;29197;44.788;10.366;2023-01-01T23:33:47;31.65;;;17.70;;
43606;SDS011;29197;44.788;10.366;2023-01-01T23:36:38;25.13;;;16.77;;
43606;SDS011;29197;44.788;10.366;2023-01-01T23:39:30;28.20;;;17.02;;
43606;SDS011;29197;44.788;10.366;2023-01-01T23:42:19;24.70;;;16.17;;
43606;SDS011;29197;44.788;10.366;2023-01-01T23:45:09;30.05;;;17.08;;
43606;SDS011;29197;44.788;10.366;2023-01-01T23:48:00;26.55;;;16.88;;
43606;SDS011;29197;44.788;10.366;2023-01-01T23:50:50;27.63;;;17.35;;
43606;SDS011;29197;44.788;10.366;2023-01-01T23:53:39;24.73;;;15.60;;
43606;SDS011;29197;44.788;10.366;2023-01-01T23:56:28;26.42;;;16.92;;
43606;SDS011;29197;44.788;10.366;2023-01-01T23:59:17;27.98;;;16.20;;
